sensor_id;sensor_type;location;lat;lon;timestamp;temperature;humidity
25440;DHT22;13365;52.208;5.488;2022-08-21T00:00:59;20.10;86.10
25440;DHT22;13365;52.208;5.488;2022-08-21T00:03:26;20.10;85.30
25440;DHT22;13365;52.208;5.488;2022-08-21T00:05:52;20.10;85.30
25440;DHT22;13365;52.208;5.488;2022-08-21T00:08:19;20.20;85.00
25440;DHT22;13365;52.208;5.488;2022-08-21T00:10:45;20.20;85.00
25440;DHT22;13365;52.208;5.488;2022-08-21T00:13:11;20.20;85.10
25440;DHT22;13365;52.208;5.488;2022-08-21T00:15:37;20.20;85.10
25440;DHT22;13365;52.208;5.488;2022-08-21T00:18:04;20.10;85.00
25440;DHT22;13365;52.208;5.488;2022-08-21T00:20:29;20.00;85.00
25440;DHT22;13365;52.208;5.488;2022-08-21T00:22:55;20.20;85.00
25440;DHT22;13365;52.208;5.488;2022-08-21T00:25:21;20.10;84.80
25440;DHT22;13365;52.208;5.488;2022-08-21T00:27:46;20.20;85.00
25440;DHT22;13365;52.208;5.488;2022-08-21T00:30:13;20.10;84.90
25440;DHT22;13365;52.208;5.488;2022-08-21T00:32:39;20.00;84.80
25440;DHT22;13365;52.208;5.488;2022-08-21T00:35:06;20.00;85.00
25440;DHT22;13365;52.208;5.488;2022-08-21T00:37:32;20.00;85.00
25440;DHT22;13365;52.208;5.488;2022-08-21T00:39:58;19.90;85.20
25440;DHT22;13365;52.208;5.488;2022-08-21T00:42:24;20.00;85.40
25440;DHT22;13365;52.208;5.488;2022-08-21T00:44:49;20.00;85.10
25440;DHT22;13365;52.208;5.488;2022-08-21T00:47:16;19.90;85.00
25440;DHT22;13365;52.208;5.488;2022-08-21T00:49:42;20.10;85.50
25440;DHT22;13365;52.208;5.488;2022-08-21T00:52:09;19.90;85.20
25440;DHT22;13365;52.208;5.488;2022-08-21T00:54:36;19.80;85.10
25440;DHT22;13365;52.208;5.488;2022-08-21T00:57:03;19.80;85.30
25440;DHT22;13365;52.208;5.488;2022-08-21T00:59:30;19.80;85.20
25440;DHT22;13365;52.208;5.488;2022-08-21T01:01:57;19.90;85.20
25440;DHT22;13365;52.208;5.488;2022-08-21T01:04:23;19.90;85.10
25440;DHT22;13365;52.208;5.488;2022-08-21T01:06:48;20.00;85.60
25440;DHT22;13365;52.208;5.488;2022-08-21T01:09:14;19.90;85.60
25440;DHT22;13365;52.208;5.488;2022-08-21T01:11:40;19.90;85.70
25440;DHT22;13365;52.208;5.488;2022-08-21T01:14:08;19.80;85.70
25440;DHT22;13365;52.208;5.488;2022-08-21T01:16:35;19.80;85.50
25440;DHT22;13365;52.208;5.488;2022-08-21T01:19:01;19.90;85.80
25440;DHT22;13365;52.208;5.488;2022-08-21T01:21:26;19.90;86.00
25440;DHT22;13365;52.208;5.488;2022-08-21T01:23:52;20.00;85.80
25440;DHT22;13365;52.208;5.488;2022-08-21T01:26:21;19.80;85.70
25440;DHT22;13365;52.208;5.488;2022-08-21T01:31:19;19.70;85.80
25440;DHT22;13365;52.208;5.488;2022-08-21T01:33:47;19.70;85.70
25440;DHT22;13365;52.208;5.488;2022-08-21T01:36:12;19.70;85.70
25440;DHT22;13365;52.208;5.488;2022-08-21T01:38:38;19.60;85.50
25440;DHT22;13365;52.208;5.488;2022-08-21T01:41:03;19.70;85.60
25440;DHT22;13365;52.208;5.488;2022-08-21T01:43:29;19.70;85.60
25440;DHT22;13365;52.208;5.488;2022-08-21T01:45:54;19.60;85.70
25440;DHT22;13365;52.208;5.488;2022-08-21T01:48:20;19.60;85.70
25440;DHT22;13365;52.208;5.488;2022-08-21T01:50:45;19.60;85.60
25440;DHT22;13365;52.208;5.488;2022-08-21T01:53:10;19.50;85.30
25440;DHT22;13365;52.208;5.488;2022-08-21T01:55:36;19.60;85.60
25440;DHT22;13365;52.208;5.488;2022-08-21T01:58:02;19.40;85.70
25440;DHT22;13365;52.208;5.488;2022-08-21T02:00:27;19.60;86.00
25440;DHT22;13365;52.208;5.488;2022-08-21T02:02:53;19.60;86.00
25440;DHT22;13365;52.208;5.488;2022-08-21T02:05:19;19.50;85.80
25440;DHT22;13365;52.208;5.488;2022-08-21T02:07:45;19.40;86.00
25440;DHT22;13365;52.208;5.488;2022-08-21T02:10:12;19.40;86.00
25440;DHT22;13365;52.208;5.488;2022-08-21T02:12:38;19.50;86.00
25440;DHT22;13365;52.208;5.488;2022-08-21T02:15:04;19.50;86.00
25440;DHT22;13365;52.208;5.488;2022-08-21T02:17:44;19.40;85.90
25440;DHT22;13365;52.208;5.488;2022-08-21T02:20:11;19.40;86.00
25440;DHT22;13365;52.208;5.488;2022-08-21T02:22:39;19.40;86.00
25440;DHT22;13365;52.208;5.488;2022-08-21T02:25:05;19.60;86.20
25440;DHT22;13365;52.208;5.488;2022-08-21T02:27:36;19.50;85.80
25440;DHT22;13365;52.208;5.488;2022-08-21T02:30:02;19.60;86.20
25440;DHT22;13365;52.208;5.488;2022-08-21T02:32:27;19.60;86.30
25440;DHT22;13365;52.208;5.488;2022-08-21T02:34:53;19.60;86.50
25440;DHT22;13365;52.208;5.488;2022-08-21T02:37:19;19.50;86.40
25440;DHT22;13365;52.208;5.488;2022-08-21T02:39:44;19.60;86.50
25440;DHT22;13365;52.208;5.488;2022-08-21T02:42:10;19.50;86.30
25440;DHT22;13365;52.208;5.488;2022-08-21T02:44:35;19.50;86.30
25440;DHT22;13365;52.208;5.488;2022-08-21T02:47:00;19.50;86.20
25440;DHT22;13365;52.208;5.488;2022-08-21T02:49:26;19.40;85.90
25440;DHT22;13365;52.208;5.488;2022-08-21T02:51:51;19.30;85.60
25440;DHT22;13365;52.208;5.488;2022-08-21T02:54:17;19.20;85.40
25440;DHT22;13365;52.208;5.488;2022-08-21T02:56:42;19.20;85.70
25440;DHT22;13365;52.208;5.488;2022-08-21T02:59:08;19.30;86.00
25440;DHT22;13365;52.208;5.488;2022-08-21T03:01:33;19.30;85.90
25440;DHT22;13365;52.208;5.488;2022-08-21T03:03:58;19.30;85.90
25440;DHT22;13365;52.208;5.488;2022-08-21T03:06:24;19.30;85.90
25440;DHT22;13365;52.208;5.488;2022-08-21T03:08:50;19.20;85.90
25440;DHT22;13365;52.208;5.488;2022-08-21T03:11:16;19.10;85.80
25440;DHT22;13365;52.208;5.488;2022-08-21T03:13:41;19.10;86.00
25440;DHT22;13365;52.208;5.488;2022-08-21T03:16:07;19.10;85.90
25440;DHT22;13365;52.208;5.488;2022-08-21T03:18:33;19.20;85.80
25440;DHT22;13365;52.208;5.488;2022-08-21T03:20:59;19.10;85.90
25440;DHT22;13365;52.208;5.488;2022-08-21T03:23:24;18.90;86.10
25440;DHT22;13365;52.208;5.488;2022-08-21T03:25:50;19.00;86.40
25440;DHT22;13365;52.208;5.488;2022-08-21T03:28:18;19.00;86.30
25440;DHT22;13365;52.208;5.488;2022-08-21T03:30:44;18.90;86.20
25440;DHT22;13365;52.208;5.488;2022-08-21T03:33:11;18.90;86.40
25440;DHT22;13365;52.208;5.488;2022-08-21T03:35:37;18.90;86.20
25440;DHT22;13365;52.208;5.488;2022-08-21T03:38:02;18.80;86.20
25440;DHT22;13365;52.208;5.488;2022-08-21T03:40:28;18.80;86.60
25440;DHT22;13365;52.208;5.488;2022-08-21T03:42:54;19.00;86.60
25440;DHT22;13365;52.208;5.488;2022-08-21T03:45:20;18.90;86.10
25440;DHT22;13365;52.208;5.488;2022-08-21T03:47:54;18.80;86.20
25440;DHT22;13365;52.208;5.488;2022-08-21T03:50:21;18.90;86.40
25440;DHT22;13365;52.208;5.488;2022-08-21T03:52:47;18.90;86.40
25440;DHT22;13365;52.208;5.488;2022-08-21T03:55:13;19.00;86.40
25440;DHT22;13365;52.208;5.488;2022-08-21T03:57:38;18.90;86.20
25440;DHT22;13365;52.208;5.488;2022-08-21T04:00:04;18.90;86.20
25440;DHT22;13365;52.208;5.488;2022-08-21T04:02:29;18.80;86.10
25440;DHT22;13365;52.208;5.488;2022-08-21T04:04:55;18.80;86.30
25440;DHT22;13365;52.208;5.488;2022-08-21T04:07:21;18.80;86.50
25440;DHT22;13365;52.208;5.488;2022-08-21T04:09:46;18.90;86.70
25440;DHT22;13365;52.208;5.488;2022-08-21T04:12:11;18.80;86.70
25440;DHT22;13365;52.208;5.488;2022-08-21T04:14:37;18.90;86.90
25440;DHT22;13365;52.208;5.488;2022-08-21T04:17:02;18.80;86.90
25440;DHT22;13365;52.208;5.488;2022-08-21T04:19:28;18.80;86.60
25440;DHT22;13365;52.208;5.488;2022-08-21T04:21:53;18.80;86.50
25440;DHT22;13365;52.208;5.488;2022-08-21T04:24:20;18.70;86.60
25440;DHT22;13365;52.208;5.488;2022-08-21T04:26:45;18.70;86.80
25440;DHT22;13365;52.208;5.488;2022-08-21T04:29:11;18.70;86.70
25440;DHT22;13365;52.208;5.488;2022-08-21T04:31:36;18.60;87.00
25440;DHT22;13365;52.208;5.488;2022-08-21T04:34:02;18.70;87.40
25440;DHT22;13365;52.208;5.488;2022-08-21T04:36:28;18.60;87.50
25440;DHT22;13365;52.208;5.488;2022-08-21T04:38:54;18.60;87.60
25440;DHT22;13365;52.208;5.488;2022-08-21T04:41:19;18.80;87.90
25440;DHT22;13365;52.208;5.488;2022-08-21T04:43:45;18.60;87.50
25440;DHT22;13365;52.208;5.488;2022-08-21T04:46:10;18.70;88.10
25440;DHT22;13365;52.208;5.488;2022-08-21T04:48:36;18.80;88.00
25440;DHT22;13365;52.208;5.488;2022-08-21T04:51:12;18.80;88.40
25440;DHT22;13365;52.208;5.488;2022-08-21T04:53:55;18.80;88.40
25440;DHT22;13365;52.208;5.488;2022-08-21T04:56:23;18.80;88.50
25440;DHT22;13365;52.208;5.488;2022-08-21T04:58:48;18.80;88.70
25440;DHT22;13365;52.208;5.488;2022-08-21T05:01:15;18.80;88.60
25440;DHT22;13365;52.208;5.488;2022-08-21T05:03:42;18.80;88.70
25440;DHT22;13365;52.208;5.488;2022-08-21T05:06:08;19.00;89.10
25440;DHT22;13365;52.208;5.488;2022-08-21T05:08:34;19.00;89.20
25440;DHT22;13365;52.208;5.488;2022-08-21T05:11:00;19.00;89.30
25440;DHT22;13365;52.208;5.488;2022-08-21T05:13:25;19.10;89.70
25440;DHT22;13365;52.208;5.488;2022-08-21T05:15:51;19.20;90.10
25440;DHT22;13365;52.208;5.488;2022-08-21T05:18:16;19.30;90.30
25440;DHT22;13365;52.208;5.488;2022-08-21T05:20:42;19.10;90.30
25440;DHT22;13365;52.208;5.488;2022-08-21T05:23:10;19.20;90.60
25440;DHT22;13365;52.208;5.488;2022-08-21T05:25:36;19.30;90.60
25440;DHT22;13365;52.208;5.488;2022-08-21T05:28:02;19.30;90.50
25440;DHT22;13365;52.208;5.488;2022-08-21T05:30:28;19.30;90.50
25440;DHT22;13365;52.208;5.488;2022-08-21T05:32:57;19.40;90.60
25440;DHT22;13365;52.208;5.488;2022-08-21T05:35:23;19.60;90.60
25440;DHT22;13365;52.208;5.488;2022-08-21T05:37:48;19.60;90.70
25440;DHT22;13365;52.208;5.488;2022-08-21T05:40:13;19.70;90.90
25440;DHT22;13365;52.208;5.488;2022-08-21T05:42:39;19.80;91.10
25440;DHT22;13365;52.208;5.488;2022-08-21T05:45:05;19.90;91.60
25440;DHT22;13365;52.208;5.488;2022-08-21T05:47:30;20.00;91.20
25440;DHT22;13365;52.208;5.488;2022-08-21T05:49:56;20.10;91.40
25440;DHT22;13365;52.208;5.488;2022-08-21T05:52:21;20.20;91.40
25440;DHT22;13365;52.208;5.488;2022-08-21T05:54:47;20.40;91.50
25440;DHT22;13365;52.208;5.488;2022-08-21T05:57:12;20.40;91.60
25440;DHT22;13365;52.208;5.488;2022-08-21T05:59:38;20.50;91.60
25440;DHT22;13365;52.208;5.488;2022-08-21T06:02:03;20.60;91.40
25440;DHT22;13365;52.208;5.488;2022-08-21T06:04:29;20.80;91.20
25440;DHT22;13365;52.208;5.488;2022-08-21T06:06:54;21.00;91.10
25440;DHT22;13365;52.208;5.488;2022-08-21T06:09:20;21.10;91.10
25440;DHT22;13365;52.208;5.488;2022-08-21T06:11:46;21.20;91.00
25440;DHT22;13365;52.208;5.488;2022-08-21T06:14:15;21.20;91.00
25440;DHT22;13365;52.208;5.488;2022-08-21T06:16:41;21.30;91.10
25440;DHT22;13365;52.208;5.488;2022-08-21T06:19:07;21.30;91.00
25440;DHT22;13365;52.208;5.488;2022-08-21T06:21:32;21.50;91.10
25440;DHT22;13365;52.208;5.488;2022-08-21T06:23:58;21.50;91.10
25440;DHT22;13365;52.208;5.488;2022-08-21T06:26:24;21.50;91.20
25440;DHT22;13365;52.208;5.488;2022-08-21T06:28:50;21.60;91.90
25440;DHT22;13365;52.208;5.488;2022-08-21T06:31:17;21.70;91.50
25440;DHT22;13365;52.208;5.488;2022-08-21T06:33:43;21.90;91.50
25440;DHT22;13365;52.208;5.488;2022-08-21T06:36:08;21.70;91.80
25440;DHT22;13365;52.208;5.488;2022-08-21T06:38:34;21.80;91.60
25440;DHT22;13365;52.208;5.488;2022-08-21T06:41:00;22.00;91.60
25440;DHT22;13365;52.208;5.488;2022-08-21T06:43:25;22.00;91.40
25440;DHT22;13365;52.208;5.488;2022-08-21T06:45:51;22.10;91.80
25440;DHT22;13365;52.208;5.488;2022-08-21T06:48:16;22.20;91.60
25440;DHT22;13365;52.208;5.488;2022-08-21T06:50:42;22.30;91.50
25440;DHT22;13365;52.208;5.488;2022-08-21T06:53:09;22.40;91.20
25440;DHT22;13365;52.208;5.488;2022-08-21T06:55:35;22.40;91.30
25440;DHT22;13365;52.208;5.488;2022-08-21T06:58:01;22.40;91.50
25440;DHT22;13365;52.208;5.488;2022-08-21T07:00:27;22.30;91.60
25440;DHT22;13365;52.208;5.488;2022-08-21T07:02:52;22.40;91.70
25440;DHT22;13365;52.208;5.488;2022-08-21T07:05:18;22.60;91.80
25440;DHT22;13365;52.208;5.488;2022-08-21T07:07:43;22.70;91.40
25440;DHT22;13365;52.208;5.488;2022-08-21T07:10:09;22.80;91.30
25440;DHT22;13365;52.208;5.488;2022-08-21T07:12:34;22.90;91.50
25440;DHT22;13365;52.208;5.488;2022-08-21T07:15:00;23.00;91.60
25440;DHT22;13365;52.208;5.488;2022-08-21T07:17:26;23.10;91.40
25440;DHT22;13365;52.208;5.488;2022-08-21T07:19:51;22.90;91.70
25440;DHT22;13365;52.208;5.488;2022-08-21T07:22:18;23.00;92.00
25440;DHT22;13365;52.208;5.488;2022-08-21T07:24:44;23.00;92.20
25440;DHT22;13365;52.208;5.488;2022-08-21T07:27:10;23.20;91.90
25440;DHT22;13365;52.208;5.488;2022-08-21T07:29:35;23.20;91.90
25440;DHT22;13365;52.208;5.488;2022-08-21T07:32:00;23.50;92.10
25440;DHT22;13365;52.208;5.488;2022-08-21T07:34:26;23.60;91.60
25440;DHT22;13365;52.208;5.488;2022-08-21T07:36:51;23.80;91.70
25440;DHT22;13365;52.208;5.488;2022-08-21T07:39:17;24.10;91.20
25440;DHT22;13365;52.208;5.488;2022-08-21T07:41:42;24.40;91.10
25440;DHT22;13365;52.208;5.488;2022-08-21T07:44:08;24.80;90.40
25440;DHT22;13365;52.208;5.488;2022-08-21T07:46:33;25.00;90.10
25440;DHT22;13365;52.208;5.488;2022-08-21T07:48:59;25.20;88.80
25440;DHT22;13365;52.208;5.488;2022-08-21T07:51:25;25.30;88.30
25440;DHT22;13365;52.208;5.488;2022-08-21T07:53:52;25.50;87.60
25440;DHT22;13365;52.208;5.488;2022-08-21T07:56:18;25.90;87.60
25440;DHT22;13365;52.208;5.488;2022-08-21T07:58:44;26.10;87.30
25440;DHT22;13365;52.208;5.488;2022-08-21T08:01:11;26.30;84.30
25440;DHT22;13365;52.208;5.488;2022-08-21T08:03:36;26.10;85.80
25440;DHT22;13365;52.208;5.488;2022-08-21T08:06:02;26.30;85.40
25440;DHT22;13365;52.208;5.488;2022-08-21T08:08:30;26.60;85.40
25440;DHT22;13365;52.208;5.488;2022-08-21T08:10:56;26.70;83.80
25440;DHT22;13365;52.208;5.488;2022-08-21T08:13:21;26.70;83.20
25440;DHT22;13365;52.208;5.488;2022-08-21T08:15:47;26.80;83.90
25440;DHT22;13365;52.208;5.488;2022-08-21T08:18:12;26.90;83.90
25440;DHT22;13365;52.208;5.488;2022-08-21T08:20:38;27.30;82.20
25440;DHT22;13365;52.208;5.488;2022-08-21T08:23:04;27.50;80.90
25440;DHT22;13365;52.208;5.488;2022-08-21T08:25:29;27.50;80.10
25440;DHT22;13365;52.208;5.488;2022-08-21T08:27:55;27.50;80.70
25440;DHT22;13365;52.208;5.488;2022-08-21T08:30:20;27.70;80.80
25440;DHT22;13365;52.208;5.488;2022-08-21T08:32:47;27.90;80.50
25440;DHT22;13365;52.208;5.488;2022-08-21T08:35:12;27.60;79.60
25440;DHT22;13365;52.208;5.488;2022-08-21T08:37:39;28.00;80.10
25440;DHT22;13365;52.208;5.488;2022-08-21T08:40:18;28.20;79.00
25440;DHT22;13365;52.208;5.488;2022-08-21T08:42:46;28.30;77.90
25440;DHT22;13365;52.208;5.488;2022-08-21T08:45:14;28.10;78.40
25440;DHT22;13365;52.208;5.488;2022-08-21T08:47:44;28.30;78.40
25440;DHT22;13365;52.208;5.488;2022-08-21T08:50:17;28.50;78.60
25440;DHT22;13365;52.208;5.488;2022-08-21T08:52:45;28.60;78.00
25440;DHT22;13365;52.208;5.488;2022-08-21T08:55:17;29.00;77.10
25440;DHT22;13365;52.208;5.488;2022-08-21T08:57:46;29.20;77.80
25440;DHT22;13365;52.208;5.488;2022-08-21T09:00:13;29.40;75.60
25440;DHT22;13365;52.208;5.488;2022-08-21T09:02:39;29.50;75.00
25440;DHT22;13365;52.208;5.488;2022-08-21T09:05:05;29.70;73.00
25440;DHT22;13365;52.208;5.488;2022-08-21T09:07:35;29.60;71.40
25440;DHT22;13365;52.208;5.488;2022-08-21T09:10:19;29.00;71.20
25440;DHT22;13365;52.208;5.488;2022-08-21T09:12:49;29.00;73.20
25440;DHT22;13365;52.208;5.488;2022-08-21T09:28:25;29.60;74.50
25440;DHT22;13365;52.208;5.488;2022-08-21T09:30:53;29.60;73.30
25440;DHT22;13365;52.208;5.488;2022-08-21T09:33:19;29.80;72.20
25440;DHT22;13365;52.208;5.488;2022-08-21T09:35:52;30.00;73.40
25440;DHT22;13365;52.208;5.488;2022-08-21T09:38:26;30.50;72.50
25440;DHT22;13365;52.208;5.488;2022-08-21T09:40:56;30.70;70.70
25440;DHT22;13365;52.208;5.488;2022-08-21T09:43:22;30.90;67.20
25440;DHT22;13365;52.208;5.488;2022-08-21T09:46:00;30.90;66.00
25440;DHT22;13365;52.208;5.488;2022-08-21T09:48:26;30.80;67.90
25440;DHT22;13365;52.208;5.488;2022-08-21T09:50:53;30.70;66.50
25440;DHT22;13365;52.208;5.488;2022-08-21T09:53:30;30.70;66.90
25440;DHT22;13365;52.208;5.488;2022-08-21T09:55:59;30.70;66.10
25440;DHT22;13365;52.208;5.488;2022-08-21T09:58:44;30.50;65.80
25440;DHT22;13365;52.208;5.488;2022-08-21T10:01:19;30.20;64.00
25440;DHT22;13365;52.208;5.488;2022-08-21T10:03:45;29.90;64.80
25440;DHT22;13365;52.208;5.488;2022-08-21T10:06:20;29.80;67.10
25440;DHT22;13365;52.208;5.488;2022-08-21T10:08:46;29.80;68.50
25440;DHT22;13365;52.208;5.488;2022-08-21T10:11:13;29.90;68.80
25440;DHT22;13365;52.208;5.488;2022-08-21T10:26:42;30.20;67.00
25440;DHT22;13365;52.208;5.488;2022-08-21T10:34:36;30.50;62.30
25440;DHT22;13365;52.208;5.488;2022-08-21T10:37:07;30.20;62.80
25440;DHT22;13365;52.208;5.488;2022-08-21T10:39:36;29.80;64.20
25440;DHT22;13365;52.208;5.488;2022-08-21T10:44:52;29.90;67.10
25440;DHT22;13365;52.208;5.488;2022-08-21T10:50:12;29.90;65.20
25440;DHT22;13365;52.208;5.488;2022-08-21T10:55:20;30.10;65.70
25440;DHT22;13365;52.208;5.488;2022-08-21T10:57:50;30.30;66.00
25440;DHT22;13365;52.208;5.488;2022-08-21T11:00:22;30.30;66.60
25440;DHT22;13365;52.208;5.488;2022-08-21T11:02:58;30.20;67.40
25440;DHT22;13365;52.208;5.488;2022-08-21T11:07:56;30.40;64.30
25440;DHT22;13365;52.208;5.488;2022-08-21T11:10:32;30.40;65.30
25440;DHT22;13365;52.208;5.488;2022-08-21T11:13:04;30.70;63.70
25440;DHT22;13365;52.208;5.488;2022-08-21T11:15:41;30.80;63.60
25440;DHT22;13365;52.208;5.488;2022-08-21T11:18:25;30.60;63.40
25440;DHT22;13365;52.208;5.488;2022-08-21T11:29:09;30.40;65.30
25440;DHT22;13365;52.208;5.488;2022-08-21T11:36:59;30.60;63.70
25440;DHT22;13365;52.208;5.488;2022-08-21T11:45:39;30.80;63.50
25440;DHT22;13365;52.208;5.488;2022-08-21T11:47:45;30.60;63.20
25440;DHT22;13365;52.208;5.488;2022-08-21T11:50:18;30.50;62.80
25440;DHT22;13365;52.208;5.488;2022-08-21T11:52:46;30.70;63.50
25440;DHT22;13365;52.208;5.488;2022-08-21T11:55:23;30.40;62.60
25440;DHT22;13365;52.208;5.488;2022-08-21T11:57:59;30.10;61.70
25440;DHT22;13365;52.208;5.488;2022-08-21T12:01:14;29.80;62.50
25440;DHT22;13365;52.208;5.488;2022-08-21T12:03:14;29.10;65.00
25440;DHT22;13365;52.208;5.488;2022-08-21T12:05:42;28.80;66.00
25440;DHT22;13365;52.208;5.488;2022-08-21T12:10:36;28.70;67.10
25440;DHT22;13365;52.208;5.488;2022-08-21T12:13:10;28.70;66.80
25440;DHT22;13365;52.208;5.488;2022-08-21T12:15:36;28.70;66.50
25440;DHT22;13365;52.208;5.488;2022-08-21T12:20:41;28.60;65.90
25440;DHT22;13365;52.208;5.488;2022-08-21T12:25:44;28.70;66.00
25440;DHT22;13365;52.208;5.488;2022-08-21T12:28:11;28.70;66.10
25440;DHT22;13365;52.208;5.488;2022-08-21T12:30:39;28.80;65.70
25440;DHT22;13365;52.208;5.488;2022-08-21T12:33:06;29.00;65.80
25440;DHT22;13365;52.208;5.488;2022-08-21T12:35:43;29.10;66.60
25440;DHT22;13365;52.208;5.488;2022-08-21T12:40:56;30.30;62.50
25440;DHT22;13365;52.208;5.488;2022-08-21T12:43:34;30.70;61.10
25440;DHT22;13365;52.208;5.488;2022-08-21T12:46:01;30.90;61.30
25440;DHT22;13365;52.208;5.488;2022-08-21T12:48:31;30.00;62.30
25440;DHT22;13365;52.208;5.488;2022-08-21T12:51:06;30.00;64.20
25440;DHT22;13365;52.208;5.488;2022-08-21T12:56:02;29.80;63.80
25440;DHT22;13365;52.208;5.488;2022-08-21T12:58:29;29.70;63.70
25440;DHT22;13365;52.208;5.488;2022-08-21T13:01:06;29.30;62.20
25440;DHT22;13365;52.208;5.488;2022-08-21T13:03:34;29.00;63.40
25440;DHT22;13365;52.208;5.488;2022-08-21T13:06:00;29.00;63.40
25440;DHT22;13365;52.208;5.488;2022-08-21T13:08:27;28.90;63.80
25440;DHT22;13365;52.208;5.488;2022-08-21T13:11:00;28.70;65.40
25440;DHT22;13365;52.208;5.488;2022-08-21T13:13:27;28.90;64.00
25440;DHT22;13365;52.208;5.488;2022-08-21T13:15:57;28.80;63.50
25440;DHT22;13365;52.208;5.488;2022-08-21T13:18:24;28.40;65.50
25440;DHT22;13365;52.208;5.488;2022-08-21T13:20:49;28.70;65.40
25440;DHT22;13365;52.208;5.488;2022-08-21T13:23:20;29.00;63.90
25440;DHT22;13365;52.208;5.488;2022-08-21T13:25:48;29.10;62.90
25440;DHT22;13365;52.208;5.488;2022-08-21T13:28:13;29.30;63.50
25440;DHT22;13365;52.208;5.488;2022-08-21T13:30:44;29.70;61.70
25440;DHT22;13365;52.208;5.488;2022-08-21T13:33:10;30.00;61.40
25440;DHT22;13365;52.208;5.488;2022-08-21T13:35:46;30.30;61.30
25440;DHT22;13365;52.208;5.488;2022-08-21T13:38:12;30.40;58.90
25440;DHT22;13365;52.208;5.488;2022-08-21T13:41:13;30.00;61.20
25440;DHT22;13365;52.208;5.488;2022-08-21T13:43:34;29.90;59.90
25440;DHT22;13365;52.208;5.488;2022-08-21T13:46:00;29.80;60.30
25440;DHT22;13365;52.208;5.488;2022-08-21T13:48:28;30.00;60.80
25440;DHT22;13365;52.208;5.488;2022-08-21T13:50:55;29.40;60.80
25440;DHT22;13365;52.208;5.488;2022-08-21T13:53:30;29.30;61.20
25440;DHT22;13365;52.208;5.488;2022-08-21T13:55:56;29.10;59.70
25440;DHT22;13365;52.208;5.488;2022-08-21T13:58:27;28.90;60.70
25440;DHT22;13365;52.208;5.488;2022-08-21T14:00:53;29.20;62.00
25440;DHT22;13365;52.208;5.488;2022-08-21T14:03:40;29.30;60.80
25440;DHT22;13365;52.208;5.488;2022-08-21T14:06:22;29.40;61.30
25440;DHT22;13365;52.208;5.488;2022-08-21T14:08:49;29.00;61.90
25440;DHT22;13365;52.208;5.488;2022-08-21T14:11:16;28.80;62.60
25440;DHT22;13365;52.208;5.488;2022-08-21T14:13:45;28.70;63.90
25440;DHT22;13365;52.208;5.488;2022-08-21T14:16:20;28.60;64.30
25440;DHT22;13365;52.208;5.488;2022-08-21T14:18:53;28.50;62.90
25440;DHT22;13365;52.208;5.488;2022-08-21T14:21:36;28.40;63.20
25440;DHT22;13365;52.208;5.488;2022-08-21T14:24:03;28.30;64.00
25440;DHT22;13365;52.208;5.488;2022-08-21T14:26:29;28.40;65.40
25440;DHT22;13365;52.208;5.488;2022-08-21T14:28:57;28.20;64.40
25440;DHT22;13365;52.208;5.488;2022-08-21T14:31:27;28.00;66.00
25440;DHT22;13365;52.208;5.488;2022-08-21T14:33:55;27.80;65.50
25440;DHT22;13365;52.208;5.488;2022-08-21T14:36:21;27.70;65.90
25440;DHT22;13365;52.208;5.488;2022-08-21T14:38:47;27.70;66.80
25440;DHT22;13365;52.208;5.488;2022-08-21T14:41:16;27.70;67.40
25440;DHT22;13365;52.208;5.488;2022-08-21T14:43:43;27.50;67.90
25440;DHT22;13365;52.208;5.488;2022-08-21T14:46:09;27.40;68.60
25440;DHT22;13365;52.208;5.488;2022-08-21T14:48:34;27.30;69.00
25440;DHT22;13365;52.208;5.488;2022-08-21T14:50:59;27.30;68.00
25440;DHT22;13365;52.208;5.488;2022-08-21T14:53:25;27.70;68.00
25440;DHT22;13365;52.208;5.488;2022-08-21T14:55:50;27.40;66.70
25440;DHT22;13365;52.208;5.488;2022-08-21T14:58:38;27.60;67.10
25440;DHT22;13365;52.208;5.488;2022-08-21T15:01:05;27.10;66.30
25440;DHT22;13365;52.208;5.488;2022-08-21T15:03:31;27.00;67.70
25440;DHT22;13365;52.208;5.488;2022-08-21T15:05:57;27.10;67.30
25440;DHT22;13365;52.208;5.488;2022-08-21T15:08:23;27.10;67.10
25440;DHT22;13365;52.208;5.488;2022-08-21T15:10:48;27.20;67.30
25440;DHT22;13365;52.208;5.488;2022-08-21T15:13:14;27.30;67.50
25440;DHT22;13365;52.208;5.488;2022-08-21T15:15:40;27.30;66.80
25440;DHT22;13365;52.208;5.488;2022-08-21T15:18:06;27.10;67.40
25440;DHT22;13365;52.208;5.488;2022-08-21T15:20:32;27.50;67.50
25440;DHT22;13365;52.208;5.488;2022-08-21T15:22:58;27.40;66.60
25440;DHT22;13365;52.208;5.488;2022-08-21T15:25:23;27.30;66.20
25440;DHT22;13365;52.208;5.488;2022-08-21T15:27:49;27.40;65.80
25440;DHT22;13365;52.208;5.488;2022-08-21T15:30:14;27.20;66.80
25440;DHT22;13365;52.208;5.488;2022-08-21T15:32:40;27.00;67.90
25440;DHT22;13365;52.208;5.488;2022-08-21T15:35:07;26.70;68.80
25440;DHT22;13365;52.208;5.488;2022-08-21T15:37:33;26.80;67.50
25440;DHT22;13365;52.208;5.488;2022-08-21T15:39:58;26.80;68.20
25440;DHT22;13365;52.208;5.488;2022-08-21T15:42:24;26.90;67.10
25440;DHT22;13365;52.208;5.488;2022-08-21T15:44:51;27.00;68.30
25440;DHT22;13365;52.208;5.488;2022-08-21T15:47:19;27.00;68.00
25440;DHT22;13365;52.208;5.488;2022-08-21T15:49:46;27.10;67.80
25440;DHT22;13365;52.208;5.488;2022-08-21T15:52:15;26.90;65.70
25440;DHT22;13365;52.208;5.488;2022-08-21T15:54:41;26.90;66.60
25440;DHT22;13365;52.208;5.488;2022-08-21T15:57:07;26.60;66.90
25440;DHT22;13365;52.208;5.488;2022-08-21T15:59:37;26.60;67.70
25440;DHT22;13365;52.208;5.488;2022-08-21T16:02:04;26.80;66.00
25440;DHT22;13365;52.208;5.488;2022-08-21T16:04:30;27.20;66.30
25440;DHT22;13365;52.208;5.488;2022-08-21T16:06:57;27.00;66.20
25440;DHT22;13365;52.208;5.488;2022-08-21T16:09:22;27.50;67.90
25440;DHT22;13365;52.208;5.488;2022-08-21T16:11:48;27.60;68.40
25440;DHT22;13365;52.208;5.488;2022-08-21T16:14:14;27.40;68.50
25440;DHT22;13365;52.208;5.488;2022-08-21T16:16:41;27.20;69.50
25440;DHT22;13365;52.208;5.488;2022-08-21T16:19:07;27.00;70.30
25440;DHT22;13365;52.208;5.488;2022-08-21T16:21:35;27.10;70.40
25440;DHT22;13365;52.208;5.488;2022-08-21T16:24:01;27.50;70.40
25440;DHT22;13365;52.208;5.488;2022-08-21T16:26:26;27.70;69.60
25440;DHT22;13365;52.208;5.488;2022-08-21T16:28:54;27.60;69.10
25440;DHT22;13365;52.208;5.488;2022-08-21T16:31:20;27.80;69.40
25440;DHT22;13365;52.208;5.488;2022-08-21T16:33:48;27.60;69.10
25440;DHT22;13365;52.208;5.488;2022-08-21T16:36:14;27.30;69.70
25440;DHT22;13365;52.208;5.488;2022-08-21T16:38:40;27.20;68.00
25440;DHT22;13365;52.208;5.488;2022-08-21T16:41:11;26.80;67.80
25440;DHT22;13365;52.208;5.488;2022-08-21T16:43:38;26.60;68.60
25440;DHT22;13365;52.208;5.488;2022-08-21T16:46:04;26.60;69.40
25440;DHT22;13365;52.208;5.488;2022-08-21T16:48:30;26.40;69.90